createdAt,value
2023-01-17T00:03:55.852Z,3.40
2023-01-17T00:13:50.314Z,3.70
2023-01-17T00:23:49.753Z,3.30
2023-01-17T00:33:49.527Z,1.60
2023-01-17T00:43:49.121Z,4.60
2023-01-17T00:53:48.597Z,2.40
2023-01-17T01:03:48.187Z,2.10
2023-01-17T01:13:47.959Z,1.80
2023-01-17T01:23:42.285Z,2.70
2023-01-17T01:33:41.933Z,1.60
2023-01-17T01:43:41.441Z,1.60
2023-01-17T01:53:41.149Z,1.30
2023-01-17T02:03:40.637Z,2.20
2023-01-17T02:13:40.515Z,4.40
2023-01-17T02:23:40.083Z,4.60
2023-01-17T02:33:33.968Z,2.10
2023-01-17T02:43:33.537Z,5.10
2023-01-17T02:53:33.148Z,2.90
2023-01-17T03:03:32.750Z,3.50
2023-01-17T03:13:32.521Z,2.60
2023-01-17T03:23:31.979Z,3.10
2023-01-17T03:33:26.317Z,3.60
2023-01-17T03:43:25.947Z,1.90
2023-01-17T03:53:25.557Z,4.30
2023-01-17T04:03:25.307Z,3.50
2023-01-17T04:13:24.774Z,4.40
2023-01-17T04:23:24.393Z,4.10
2023-01-17T04:33:18.730Z,4.10
2023-01-17T04:43:18.501Z,5.70
2023-01-17T04:53:18.127Z,5.20
2023-01-17T05:03:17.919Z,5.20
2023-01-17T05:13:17.339Z,4.70
2023-01-17T05:23:16.843Z,6.30
2023-01-17T05:33:11.114Z,6.90
2023-01-17T05:43:10.568Z,5.20
2023-01-17T05:53:10.669Z,7.00
2023-01-17T06:03:09.848Z,8.60
2023-01-17T06:13:09.464Z,8.80
2023-01-17T06:23:04.279Z,7.50
2023-01-17T06:33:03.787Z,11.40
2023-01-17T06:43:03.425Z,11.90
2023-01-17T06:53:03.043Z,11.10
2023-01-17T07:03:02.652Z,10.20
2023-01-17T07:13:02.148Z,12.10
2023-01-17T07:22:56.384Z,10.20
2023-01-17T07:32:56.180Z,10.80
2023-01-17T07:42:55.495Z,10.00
2023-01-17T07:52:55.133Z,13.00
2023-01-17T08:02:54.735Z,10.90
2023-01-17T08:12:54.358Z,11.00
2023-01-17T08:22:48.599Z,12.30
2023-01-17T08:32:48.256Z,13.00
2023-01-17T08:42:47.857Z,13.00
2023-01-17T08:52:47.642Z,10.40
2023-01-17T09:02:47.091Z,11.20
2023-01-17T09:12:46.728Z,11.30
2023-01-17T09:22:41.482Z,10.20
2023-01-17T09:32:40.933Z,11.80
2023-01-17T09:42:40.434Z,12.70
2023-01-17T09:52:40.199Z,15.30
2023-01-17T10:02:39.790Z,10.00
2023-01-17T10:12:39.291Z,9.00
2023-01-17T10:22:38.920Z,12.00
2023-01-17T10:32:33.043Z,13.50
2023-01-17T10:42:32.881Z,10.50
2023-01-17T10:52:32.289Z,10.30
2023-01-17T11:02:32.048Z,9.50
2023-01-17T11:12:31.436Z,11.20
2023-01-17T11:22:31.048Z,12.40
2023-01-17T11:32:30.776Z,8.00
2023-01-17T11:42:24.888Z,7.90
2023-01-17T11:52:24.596Z,7.30
2023-01-17T12:02:24.028Z,8.50
2023-01-17T12:12:23.789Z,7.70
2023-01-17T12:22:23.273Z,7.00
2023-01-17T12:32:23.082Z,5.80
2023-01-17T12:42:22.571Z,6.50
2023-01-17T12:52:17.308Z,6.40
2023-01-17T13:02:16.956Z,5.80
2023-01-17T13:12:16.588Z,5.90
2023-01-17T13:22:16.096Z,7.00
2023-01-17T13:32:15.893Z,7.70
2023-01-17T13:42:15.522Z,8.70
2023-01-17T13:52:14.990Z,9.20
2023-01-17T14:02:14.761Z,8.70
2023-01-17T14:12:09.193Z,6.00
2023-01-17T14:22:08.657Z,5.80
2023-01-17T14:32:08.438Z,12.30
2023-01-17T14:42:08.071Z,6.30
2023-01-17T14:52:07.557Z,34.70
2023-01-17T15:02:08.498Z,7.80
2023-01-17T15:12:07.082Z,6.80
2023-01-17T15:22:06.730Z,9.10
2023-01-17T15:32:00.997Z,13.80
2023-01-17T15:42:00.503Z,22.70
2023-01-17T15:52:00.120Z,15.90
2023-01-17T16:01:59.872Z,12.10
2023-01-17T16:11:59.390Z,15.80
2023-01-17T16:21:59.010Z,12.50
2023-01-17T16:31:58.786Z,11.80
2023-01-17T16:41:53.152Z,10.90
2023-01-17T16:51:52.938Z,11.40
2023-01-17T17:01:52.492Z,9.40
2023-01-17T17:11:52.191Z,9.20
2023-01-17T17:21:51.691Z,11.50
2023-01-17T17:31:51.291Z,12.10
2023-01-17T17:41:50.925Z,9.90
2023-01-17T17:51:45.182Z,12.20
2023-01-17T18:01:44.825Z,9.30
2023-01-17T18:11:44.410Z,9.40
2023-01-17T18:21:44.236Z,12.40
2023-01-17T18:31:43.777Z,16.30
2023-01-17T18:41:43.338Z,10.30
2023-01-17T18:51:42.785Z,9.10
2023-01-17T19:01:37.107Z,9.20
2023-01-17T19:11:36.730Z,9.60
2023-01-17T19:21:36.376Z,14.10
2023-01-17T19:31:35.906Z,15.30
2023-01-17T19:41:35.670Z,18.30
2023-01-17T19:51:35.122Z,26.60
2023-01-17T20:01:29.449Z,21.40
2023-01-17T20:11:29.178Z,21.90
2023-01-17T20:21:28.629Z,14.20
2023-01-17T20:31:28.296Z,24.80
2023-01-17T20:41:28.017Z,24.00
2023-01-17T20:51:27.521Z,34.90
2023-01-17T21:01:22.186Z,30.00
2023-01-17T21:11:21.530Z,27.00
2023-01-17T21:21:21.151Z,13.90
2023-01-17T21:31:20.992Z,13.60
2023-01-17T21:41:20.399Z,14.80
2023-01-17T21:51:20.044Z,19.20
2023-01-17T22:01:14.568Z,18.40
2023-01-17T22:11:14.275Z,17.40
2023-01-17T22:21:13.947Z,18.50
2023-01-17T22:31:13.363Z,21.90
2023-01-17T22:41:13.157Z,39.80
2023-01-17T22:51:12.735Z,20.60
2023-01-17T23:01:12.413Z,16.50
2023-01-17T23:11:06.525Z,15.50
2023-01-17T23:21:05.914Z,19.40
2023-01-17T23:31:05.878Z,15.60
2023-01-17T23:41:05.322Z,16.90
2023-01-17T23:51:05.240Z,15.40
